createdAt,value
2018-09-23T00:00:12.783Z,68.79
2018-09-23T00:02:41.172Z,68.85
2018-09-23T00:05:09.552Z,68.89
2018-09-23T00:07:37.879Z,69.18
2018-09-23T00:10:06.357Z,68.73
2018-09-23T00:12:34.703Z,68.74
2018-09-23T00:15:03.063Z,68.75
2018-09-23T00:17:31.467Z,69.31
2018-09-23T00:19:59.828Z,69.34
2018-09-23T00:22:28.251Z,69.06
2018-09-23T00:24:56.617Z,69.28
2018-09-23T00:27:25.013Z,69.45
2018-09-23T00:29:53.351Z,69.01
2018-09-23T00:32:23.727Z,68.83
2018-09-23T00:34:52.159Z,69.09
2018-09-23T00:37:20.744Z,68.60
2018-09-23T00:39:49.267Z,68.74
2018-09-23T00:42:17.631Z,69.13
2018-09-23T00:44:45.979Z,69.00
2018-09-23T00:47:14.475Z,68.48
2018-09-23T00:49:42.835Z,68.42
2018-09-23T00:52:11.174Z,68.18
2018-09-23T00:54:39.641Z,68.22
2018-09-23T00:57:08.065Z,68.30
2018-09-23T00:59:37.421Z,68.33
2018-09-23T01:02:05.815Z,68.72
2018-09-23T01:04:34.209Z,68.64
2018-09-23T01:07:02.565Z,68.81
2018-09-23T01:09:30.933Z,68.80
2018-09-23T01:11:59.282Z,68.64
2018-09-23T01:14:27.769Z,68.82
2018-09-23T01:16:56.160Z,69.28
2018-09-23T01:19:24.584Z,68.75
2018-09-23T01:21:52.933Z,68.72
2018-09-23T01:24:21.294Z,68.66
2018-09-23T01:26:49.638Z,68.69
2018-09-23T01:29:17.962Z,69.16
2018-09-23T01:31:46.362Z,69.66
2018-09-23T01:34:14.683Z,69.51
2018-09-23T01:36:43.061Z,69.19
2018-09-23T01:39:11.411Z,69.27
2018-09-23T01:41:39.823Z,69.34
2018-09-23T01:44:08.145Z,69.31
2018-09-23T01:46:36.611Z,69.47
2018-09-23T01:49:04.995Z,69.50
2018-09-23T01:51:33.323Z,69.23
2018-09-23T01:54:01.799Z,69.61
2018-09-23T01:56:30.132Z,69.52
2018-09-23T01:58:58.515Z,69.79
2018-09-23T02:01:27.135Z,69.98
2018-09-23T02:03:55.517Z,69.44
2018-09-23T02:06:23.950Z,69.33
2018-09-23T02:08:52.367Z,69.21
2018-09-23T02:11:20.679Z,69.57
2018-09-23T02:13:49.014Z,69.49
2018-09-23T02:16:17.469Z,69.86
2018-09-23T02:18:45.857Z,69.80
2018-09-23T02:21:14.288Z,69.62
2018-09-23T02:23:42.635Z,69.14
2018-09-23T02:26:10.993Z,69.44
2018-09-23T02:28:39.311Z,69.24
2018-09-23T02:31:07.857Z,69.31
2018-09-23T02:33:36.190Z,69.83
2018-09-23T02:36:04.547Z,70.08
2018-09-23T02:38:32.928Z,70.41
2018-09-23T02:41:01.261Z,70.31
2018-09-23T02:43:29.605Z,70.49
2018-09-23T02:45:57.957Z,70.22
2018-09-23T02:48:26.307Z,70.50
2018-09-23T02:50:54.645Z,70.42
2018-09-23T02:53:23.103Z,70.42
2018-09-23T02:55:51.420Z,70.42
2018-09-23T02:58:19.779Z,70.58
2018-09-23T03:00:48.150Z,70.35
2018-09-23T03:03:16.587Z,70.18
2018-09-23T03:05:45.019Z,70.30
2018-09-23T03:08:13.729Z,70.72
2018-09-23T03:10:42.085Z,70.57
2018-09-23T03:13:10.463Z,70.79
2018-09-23T03:15:38.865Z,71.25
2018-09-23T03:18:07.248Z,71.22
2018-09-23T03:20:35.605Z,70.96
2018-09-23T03:23:04.091Z,70.67
2018-09-23T03:25:33.494Z,70.68
2018-09-23T03:28:01.879Z,70.89
2018-09-23T03:30:30.243Z,71.15
2018-09-23T03:32:58.659Z,71.19
2018-09-23T03:35:26.987Z,71.09
2018-09-23T03:37:55.475Z,71.49
2018-09-23T03:40:23.805Z,71.65
2018-09-23T03:42:52.194Z,72.02
2018-09-23T03:45:20.545Z,72.06
2018-09-23T03:47:48.879Z,71.47
2018-09-23T03:50:17.258Z,72.08
2018-09-23T03:52:45.632Z,71.68
2018-09-23T03:55:14.140Z,71.97
2018-09-23T03:57:42.478Z,71.89
2018-09-23T04:00:10.880Z,71.55
2018-09-23T04:02:39.208Z,71.27
2018-09-23T04:05:07.579Z,71.24
2018-09-23T04:07:36.029Z,71.70
2018-09-23T04:10:04.447Z,71.72
2018-09-23T04:12:32.776Z,72.20
2018-09-23T04:15:01.140Z,72.15
2018-09-23T04:17:29.502Z,71.74
2018-09-23T04:19:57.875Z,72.03
2018-09-23T04:22:26.262Z,71.75
2018-09-23T04:24:54.596Z,71.79
2018-09-23T04:27:22.929Z,71.89
2018-09-23T04:29:51.370Z,72.04
2018-09-23T04:32:19.692Z,72.75
2018-09-23T04:34:48.060Z,72.80
2018-09-23T04:37:16.412Z,73.17
2018-09-23T04:39:44.752Z,73.25
2018-09-23T04:42:13.089Z,72.72
2018-09-23T04:44:41.476Z,72.58
2018-09-23T04:47:09.808Z,72.53
2018-09-23T04:49:38.140Z,72.11
2018-09-23T04:52:06.621Z,72.28
2018-09-23T04:54:34.979Z,72.22
2018-09-23T04:57:03.553Z,72.41
2018-09-23T04:59:31.920Z,72.09
2018-09-23T05:02:00.260Z,72.11
2018-09-23T05:04:28.589Z,72.44
2018-09-23T05:06:57.076Z,72.15
2018-09-23T05:09:25.383Z,72.46
2018-09-23T05:11:53.718Z,73.24
2018-09-23T05:14:22.092Z,73.08
2018-09-23T05:16:50.480Z,73.07
2018-09-23T05:19:18.872Z,73.20
2018-09-23T05:21:47.292Z,72.73
2018-09-23T05:24:15.627Z,73.26
2018-09-23T05:26:43.990Z,73.16
2018-09-23T05:29:12.363Z,73.56
2018-09-23T05:31:40.845Z,73.66
2018-09-23T05:34:09.727Z,73.58
2018-09-23T05:36:38.131Z,73.74
2018-09-23T05:39:08.201Z,74.00
2018-09-23T05:41:36.824Z,74.12
2018-09-23T05:44:05.287Z,74.42
2018-09-23T05:46:33.579Z,73.91
2018-09-23T05:49:01.919Z,73.65
2018-09-23T05:51:30.299Z,73.74
2018-09-23T05:53:58.769Z,73.03
2018-09-23T05:56:27.135Z,73.04
2018-09-23T05:58:55.521Z,73.05
2018-09-23T06:01:23.895Z,72.97
2018-09-23T06:03:52.223Z,73.23
2018-09-23T06:06:20.621Z,73.41
2018-09-23T06:08:48.991Z,73.63
2018-09-23T06:11:17.425Z,73.85
2018-09-23T06:13:45.843Z,73.76
2018-09-23T06:16:14.191Z,73.84
2018-09-23T06:18:42.609Z,73.99
2018-09-23T06:21:10.995Z,74.05
2018-09-23T06:23:39.805Z,74.36
2018-09-23T06:26:08.384Z,74.21
2018-09-23T06:28:36.799Z,74.08
2018-09-23T06:31:05.319Z,74.25
2018-09-23T06:33:33.696Z,74.44
2018-09-23T06:36:02.085Z,74.61
2018-09-23T06:38:30.433Z,74.21
2018-09-23T06:40:58.819Z,74.29
2018-09-23T06:43:27.302Z,74.67
2018-09-23T06:45:55.656Z,74.47
2018-09-23T06:48:23.995Z,74.73
2018-09-23T06:50:52.391Z,74.49
2018-09-23T06:53:20.754Z,75.02
2018-09-23T06:55:49.108Z,74.93
2018-09-23T06:58:17.484Z,74.80
2018-09-23T07:00:45.860Z,74.95
2018-09-23T07:03:14.187Z,74.83
2018-09-23T07:05:42.649Z,75.14
2018-09-23T07:08:11.045Z,75.24
2018-09-23T07:10:39.961Z,74.69
2018-09-23T07:13:08.369Z,74.97
2018-09-23T07:15:36.799Z,75.13
2018-09-23T07:18:05.247Z,74.62
2018-09-23T07:20:34.321Z,74.87
2018-09-23T07:23:02.657Z,74.86
2018-09-23T07:25:31.039Z,74.76
2018-09-23T07:27:59.437Z,74.79
2018-09-23T07:30:27.777Z,74.64
2018-09-23T07:32:56.136Z,74.91
2018-09-23T07:35:24.526Z,74.64
2018-09-23T07:37:52.869Z,74.66
2018-09-23T07:40:21.209Z,74.95
2018-09-23T07:42:49.618Z,74.43
2018-09-23T07:45:17.980Z,74.72
2018-09-23T07:47:46.332Z,74.06
2018-09-23T07:50:14.747Z,74.08
2018-09-23T07:52:43.102Z,74.12
2018-09-23T07:55:11.496Z,73.71
2018-09-23T07:57:40.029Z,73.78
2018-09-23T08:00:08.400Z,74.06
2018-09-23T08:02:36.748Z,73.99
2018-09-23T08:05:05.164Z,73.69
2018-09-23T08:07:33.540Z,73.62
2018-09-23T08:10:01.885Z,73.77
2018-09-23T08:12:30.379Z,73.70
2018-09-23T08:14:59.003Z,73.72
2018-09-23T08:17:27.108Z,73.23
2018-09-23T08:19:55.575Z,73.51
2018-09-23T08:22:23.872Z,73.53
2018-09-23T08:24:52.255Z,73.03
2018-09-23T08:27:20.608Z,72.95
2018-09-23T08:29:48.974Z,73.18
2018-09-23T08:32:17.307Z,73.07
2018-09-23T08:34:45.689Z,73.26
2018-09-23T08:37:14.038Z,73.10
2018-09-23T08:39:42.431Z,73.13
2018-09-23T08:42:10.799Z,72.74
2018-09-23T08:44:39.159Z,72.79
2018-09-23T08:47:07.520Z,73.04
2018-09-23T08:49:35.901Z,72.83
2018-09-23T08:52:04.311Z,72.88
2018-09-23T08:54:32.640Z,72.58
2018-09-23T08:57:01.008Z,72.21
2018-09-23T08:59:29.387Z,72.32
2018-09-23T09:01:57.749Z,71.75
2018-09-23T09:04:26.128Z,71.45
2018-09-23T09:06:55.693Z,71.58
2018-09-23T09:09:24.123Z,71.64
2018-09-23T09:11:52.607Z,71.53
2018-09-23T09:14:20.907Z,71.79
2018-09-23T09:16:49.263Z,71.72
2018-09-23T09:19:17.733Z,71.68
2018-09-23T09:21:46.076Z,71.42
2018-09-23T09:24:14.407Z,71.65
2018-09-23T09:26:42.842Z,71.14
2018-09-23T09:29:11.186Z,71.15
2018-09-23T09:31:39.590Z,70.85
2018-09-23T09:34:08.237Z,70.94
2018-09-23T09:36:36.603Z,70.86
2018-09-23T09:39:07.831Z,70.62
2018-09-23T09:41:36.321Z,70.55
2018-09-23T09:44:04.908Z,70.41
2018-09-23T09:46:33.285Z,70.33
2018-09-23T09:49:01.651Z,69.84
2018-09-23T09:51:29.982Z,69.69
2018-09-23T09:53:58.317Z,69.98
2018-09-23T09:56:26.668Z,69.75
2018-09-23T09:58:55.036Z,69.48
2018-09-23T10:01:23.373Z,69.46
2018-09-23T10:03:51.885Z,69.19
2018-09-23T10:06:20.166Z,69.18
2018-09-23T10:08:48.506Z,69.16
2018-09-23T10:11:16.999Z,68.70
2018-09-23T10:13:45.355Z,68.19
2018-09-23T10:16:13.688Z,68.01
2018-09-23T10:18:42.119Z,67.41
2018-09-23T10:21:10.643Z,67.03
2018-09-23T10:23:39.074Z,67.03
2018-09-23T10:26:07.462Z,67.28
2018-09-23T10:28:35.837Z,67.59
2018-09-23T10:31:04.227Z,67.64
2018-09-23T10:33:32.677Z,67.22
2018-09-23T10:36:01.116Z,67.22
2018-09-23T10:38:29.530Z,67.25
2018-09-23T10:40:57.857Z,67.21
2018-09-23T10:43:26.231Z,67.32
2018-09-23T10:45:54.586Z,67.15
2018-09-23T10:48:23.083Z,66.80
2018-09-23T10:50:51.720Z,66.44
2018-09-23T10:53:20.099Z,65.68
2018-09-23T10:55:48.583Z,65.23
2018-09-23T10:58:16.932Z,65.50
2018-09-23T11:00:45.270Z,65.51
2018-09-23T11:03:13.628Z,65.50
2018-09-23T11:05:41.969Z,65.07
2018-09-23T11:08:10.318Z,65.38
2018-09-23T11:10:38.766Z,65.16
2018-09-23T11:13:07.236Z,64.54
2018-09-23T11:15:35.624Z,64.03
2018-09-23T11:18:04.141Z,63.46
2018-09-23T11:20:32.472Z,62.92
2018-09-23T11:23:00.804Z,62.29
2018-09-23T11:25:29.177Z,62.45
2018-09-23T11:27:57.540Z,62.13
2018-09-23T11:30:25.907Z,62.23
2018-09-23T11:32:54.269Z,62.27
2018-09-23T11:35:22.616Z,61.67
2018-09-23T11:37:50.956Z,61.78
2018-09-23T11:40:19.324Z,61.37
2018-09-23T11:42:47.677Z,61.10
2018-09-23T11:45:16.026Z,60.98
2018-09-23T11:47:44.398Z,60.28
2018-09-23T11:50:12.780Z,60.54
2018-09-23T11:52:41.207Z,59.28
2018-09-23T11:55:09.600Z,59.29
2018-09-23T11:57:37.960Z,59.49
2018-09-23T12:00:07.223Z,59.59
2018-09-23T12:02:35.769Z,60.30
2018-09-23T12:05:04.152Z,60.30
2018-09-23T12:07:32.483Z,59.77
2018-09-23T12:10:00.961Z,60.06
2018-09-23T12:12:29.395Z,59.79
2018-09-23T12:14:57.795Z,59.27
2018-09-23T12:17:26.153Z,58.88
2018-09-23T12:19:54.546Z,58.50
2018-09-23T12:22:22.881Z,58.20
2018-09-23T12:24:51.305Z,58.53
2018-09-23T12:27:19.680Z,57.52
2018-09-23T12:29:48.025Z,57.35
2018-09-23T12:32:16.411Z,57.42
2018-09-23T12:34:44.820Z,57.35
2018-09-23T12:37:14.342Z,57.42
2018-09-23T12:39:42.801Z,57.31
2018-09-23T12:42:11.112Z,56.53
2018-09-23T12:44:39.455Z,55.97
2018-09-23T12:47:07.863Z,55.67
2018-09-23T12:49:36.195Z,55.99
2018-09-23T12:52:04.539Z,55.78
2018-09-23T12:54:32.949Z,56.23
2018-09-23T12:57:01.307Z,55.67
2018-09-23T12:59:29.638Z,55.49
2018-09-23T13:01:58.004Z,55.49
2018-09-23T13:04:26.336Z,55.07
2018-09-23T13:06:54.687Z,55.13
2018-09-23T13:09:23.168Z,54.79
2018-09-23T13:11:51.553Z,55.10
2018-09-23T13:14:19.908Z,55.35
2018-09-23T13:16:48.307Z,54.99
2018-09-23T13:19:16.735Z,54.79
2018-09-23T13:21:45.150Z,55.25
2018-09-23T13:24:13.600Z,54.95
2018-09-23T13:26:41.999Z,55.54
2018-09-23T13:29:10.464Z,55.97
2018-09-23T13:31:38.878Z,56.05
2018-09-23T13:34:07.280Z,55.77
2018-09-23T13:36:35.758Z,56.07
2018-09-23T13:39:05.248Z,56.95
2018-09-23T13:41:33.614Z,57.11
2018-09-23T13:44:01.945Z,56.15
2018-09-23T13:46:30.344Z,56.50
2018-09-23T13:48:58.772Z,56.93
2018-09-23T13:51:27.490Z,56.76
2018-09-23T13:53:55.949Z,56.89
2018-09-23T13:56:24.389Z,57.23
2018-09-23T13:58:52.807Z,57.49
2018-09-23T14:01:21.180Z,57.90
2018-09-23T14:03:49.772Z,57.43
2018-09-23T14:06:18.140Z,57.43
2018-09-23T14:08:46.528Z,57.89
2018-09-23T14:11:14.884Z,57.81
2018-09-23T14:13:43.256Z,58.04
2018-09-23T14:16:11.727Z,57.68
2018-09-23T14:18:40.131Z,58.36
2018-09-23T14:21:08.466Z,57.81
2018-09-23T14:23:36.848Z,58.15
2018-09-23T14:26:05.279Z,58.01
2018-09-23T14:28:33.599Z,58.07
2018-09-23T14:31:01.999Z,57.73
2018-09-23T14:33:30.335Z,57.87
2018-09-23T14:35:58.687Z,57.50
2018-09-23T14:38:27.131Z,57.99
2018-09-23T14:40:55.692Z,58.09
2018-09-23T14:43:24.067Z,58.22
2018-09-23T14:45:52.463Z,57.78
2018-09-23T14:48:20.930Z,57.97
2018-09-23T14:50:50.030Z,57.85
2018-09-23T14:53:24.746Z,57.56
2018-09-23T14:55:53.132Z,57.32
2018-09-23T14:58:21.490Z,57.29
2018-09-23T15:00:50.000Z,56.94
2018-09-23T15:03:18.928Z,56.60
2018-09-23T15:05:47.307Z,56.53
2018-09-23T15:08:15.748Z,56.48
2018-09-23T15:10:44.144Z,56.65
2018-09-23T15:13:12.654Z,56.21
2018-09-23T15:15:41.065Z,56.12
2018-09-23T15:18:09.468Z,55.45
2018-09-23T15:20:37.816Z,56.12
2018-09-23T15:23:06.286Z,56.05
2018-09-23T15:25:34.653Z,55.71
2018-09-23T15:28:03.040Z,55.86
2018-09-23T15:30:31.484Z,55.75
2018-09-23T15:33:00.752Z,55.96
2018-09-23T15:35:29.098Z,55.53
2018-09-23T15:37:57.568Z,56.11
2018-09-23T15:40:25.908Z,56.34
2018-09-23T15:42:54.280Z,56.36
2018-09-23T15:45:22.734Z,56.74
2018-09-23T15:47:51.076Z,56.96
2018-09-23T15:50:19.442Z,57.49
2018-09-23T15:52:47.842Z,57.76
2018-09-23T15:55:16.196Z,57.78
2018-09-23T15:57:44.556Z,57.57
2018-09-23T16:00:12.977Z,57.94
2018-09-23T16:02:41.312Z,57.82
2018-09-23T16:05:09.676Z,58.54
2018-09-23T16:07:38.108Z,58.15
2018-09-23T16:10:06.472Z,58.41
2018-09-23T16:12:34.900Z,59.11
2018-09-23T16:15:03.331Z,59.57
2018-09-23T16:17:31.935Z,59.65
2018-09-23T16:20:00.321Z,59.69
2018-09-23T16:22:28.726Z,59.73
2018-09-23T16:24:57.634Z,59.61
2018-09-23T16:27:25.989Z,59.86
2018-09-23T16:29:54.859Z,60.58
2018-09-23T16:32:23.220Z,60.23
2018-09-23T16:34:51.716Z,60.21
2018-09-23T16:37:20.139Z,60.71
2018-09-23T16:39:48.487Z,61.16
2018-09-23T16:42:16.854Z,61.46
2018-09-23T16:44:45.252Z,61.04
2018-09-23T16:47:13.684Z,61.28
2018-09-23T16:49:42.064Z,61.49
2018-09-23T16:52:10.472Z,61.76
2018-09-23T16:54:38.972Z,62.15
2018-09-23T16:57:07.360Z,61.77
2018-09-23T16:59:35.766Z,61.88
2018-09-23T17:02:04.169Z,62.48
2018-09-23T17:04:32.518Z,62.66
2018-09-23T17:07:00.915Z,63.20
2018-09-23T17:09:29.275Z,63.98
2018-09-23T17:11:57.642Z,63.84
2018-09-23T17:14:26.263Z,64.60
2018-09-23T17:16:54.657Z,64.55
2018-09-23T17:19:23.163Z,64.37
2018-09-23T17:21:51.627Z,63.61
2018-09-23T17:24:20.009Z,63.26
2018-09-23T17:26:48.355Z,63.77
2018-09-23T17:29:16.990Z,63.37
2018-09-23T17:31:45.377Z,63.40
2018-09-23T17:34:13.771Z,63.61
2018-09-23T17:36:42.191Z,63.49
2018-09-23T17:39:11.551Z,63.51
2018-09-23T17:41:40.602Z,64.00
2018-09-23T17:44:09.317Z,64.23
2018-09-23T17:46:37.955Z,64.18
2018-09-23T17:49:06.387Z,63.92
2018-09-23T17:51:34.800Z,63.65
2018-09-23T17:54:03.335Z,63.55
2018-09-23T17:56:31.710Z,63.62
2018-09-23T17:59:00.283Z,63.83
2018-09-23T18:01:28.826Z,63.88
2018-09-23T18:03:57.183Z,63.76
2018-09-23T18:06:25.653Z,63.75
2018-09-23T18:08:54.377Z,64.07
2018-09-23T18:11:22.821Z,64.11
2018-09-23T18:13:52.291Z,64.35
2018-09-23T18:16:20.663Z,64.53
2018-09-23T18:18:49.265Z,64.44
2018-09-23T18:21:17.904Z,64.26
2018-09-23T18:23:46.245Z,63.89
2018-09-23T18:26:14.787Z,63.98
2018-09-23T18:28:43.304Z,64.12
2018-09-23T18:31:11.700Z,64.00
2018-09-23T18:33:40.094Z,64.07
2018-09-23T18:36:08.721Z,64.01
2018-09-23T18:38:37.125Z,64.03
2018-09-23T18:41:05.827Z,63.35
2018-09-23T18:43:34.423Z,62.85
2018-09-23T18:46:02.744Z,62.00
2018-09-23T18:48:31.136Z,61.17
2018-09-23T18:50:59.712Z,60.59
2018-09-23T18:53:28.068Z,60.37
2018-09-23T18:55:56.421Z,60.17
2018-09-23T18:58:25.048Z,59.81
2018-09-23T19:00:53.444Z,59.57
2018-09-23T19:03:21.880Z,58.88
2018-09-23T19:05:50.396Z,59.09
2018-09-23T19:08:18.784Z,59.48
2018-09-23T19:10:47.154Z,58.71
2018-09-23T19:13:22.316Z,58.80
2018-09-23T19:15:56.077Z,59.19
2018-09-23T19:18:24.564Z,58.75
2018-09-23T19:20:52.990Z,59.13
2018-09-23T19:23:21.688Z,59.01
2018-09-23T19:25:50.088Z,59.23
2018-09-23T19:28:19.322Z,58.78
2018-09-23T19:30:47.908Z,59.66
2018-09-23T19:33:16.989Z,59.95
2018-09-23T19:35:45.488Z,60.38
2018-09-23T19:38:13.963Z,61.07
2018-09-23T19:40:42.651Z,60.96
2018-09-23T19:43:11.185Z,61.52
2018-09-23T19:45:39.657Z,61.49
2018-09-23T19:48:08.094Z,61.82
2018-09-23T19:50:36.645Z,61.33
2018-09-23T19:53:05.107Z,61.67
2018-09-23T19:55:33.733Z,62.26
2018-09-23T19:58:02.114Z,63.33
2018-09-23T20:00:31.223Z,64.39
2018-09-23T20:02:59.784Z,66.20
2018-09-23T20:05:34.923Z,68.05
2018-09-23T20:08:03.571Z,69.50
2018-09-23T20:10:32.566Z,69.90
2018-09-23T20:13:00.972Z,71.04
2018-09-23T20:15:29.480Z,71.17
2018-09-23T20:17:58.661Z,71.45
2018-09-23T20:20:27.505Z,71.55
2018-09-23T20:22:56.013Z,72.28
2018-09-23T20:25:24.480Z,72.05
2018-09-23T20:27:52.961Z,72.70
2018-09-23T20:30:21.403Z,72.29
2018-09-23T20:32:49.877Z,72.49
2018-09-23T20:35:18.296Z,72.46
2018-09-23T20:37:46.840Z,72.63
2018-09-23T20:40:15.164Z,72.81
2018-09-23T20:42:43.543Z,72.66
2018-09-23T20:45:12.139Z,72.90
2018-09-23T20:47:40.621Z,72.81
2018-09-23T20:50:08.969Z,73.12
2018-09-23T20:52:37.445Z,73.38
2018-09-23T20:55:06.092Z,73.34
2018-09-23T20:57:34.470Z,73.45
2018-09-23T21:00:03.031Z,73.32
2018-09-23T21:02:31.379Z,73.61
2018-09-23T21:04:59.885Z,73.18
2018-09-23T21:07:28.456Z,72.94
2018-09-23T21:09:56.822Z,72.95
2018-09-23T21:12:25.272Z,72.79
2018-09-23T21:14:53.843Z,72.12
2018-09-23T21:17:23.293Z,72.51
2018-09-23T21:19:52.201Z,72.54
2018-09-23T21:22:20.637Z,72.64
2018-09-23T21:24:49.084Z,72.72
2018-09-23T21:27:17.429Z,72.83
2018-09-23T21:29:45.935Z,72.98
2018-09-23T21:32:14.591Z,73.12
2018-09-23T21:34:42.955Z,73.83
2018-09-23T21:37:11.579Z,73.65
2018-09-23T21:39:40.028Z,73.49
2018-09-23T21:42:09.037Z,73.66
2018-09-23T21:44:37.528Z,73.90
2018-09-23T21:47:05.913Z,73.71
2018-09-23T21:49:34.232Z,74.19
2018-09-23T21:52:02.698Z,73.66
2018-09-23T21:54:31.031Z,73.86
2018-09-23T21:56:59.352Z,74.04
2018-09-23T21:59:27.890Z,73.84
2018-09-23T22:01:56.250Z,73.81
2018-09-23T22:04:24.684Z,73.21
2018-09-23T22:06:53.239Z,73.14
2018-09-23T22:09:21.628Z,72.83
2018-09-23T22:11:50.003Z,73.09
2018-09-23T22:14:18.587Z,73.69
2018-09-23T22:16:46.987Z,73.36
2018-09-23T22:19:15.360Z,73.03
2018-09-23T22:21:43.922Z,73.74
2018-09-23T22:24:12.363Z,74.33
2018-09-23T22:26:40.687Z,74.37
2018-09-23T22:29:09.087Z,73.41
2018-09-23T22:31:37.461Z,73.01
2018-09-23T22:34:05.835Z,72.75
2018-09-23T22:36:34.268Z,72.75
2018-09-23T22:39:02.663Z,72.72
2018-09-23T22:41:31.069Z,72.76
2018-09-23T22:43:59.481Z,72.64
2018-09-23T22:46:27.959Z,72.89
2018-09-23T22:48:56.288Z,72.51
2018-09-23T22:51:24.779Z,72.38
2018-09-23T22:53:53.181Z,71.99
2018-09-23T22:56:21.549Z,72.05
2018-09-23T22:58:50.111Z,72.10
2018-09-23T23:01:18.477Z,72.10
2018-09-23T23:03:46.817Z,72.33
2018-09-23T23:06:15.453Z,72.11
2018-09-23T23:08:43.921Z,72.12
2018-09-23T23:11:12.326Z,72.48
2018-09-23T23:13:40.841Z,72.29
2018-09-23T23:16:09.211Z,72.40
2018-09-23T23:18:37.569Z,72.34
2018-09-23T23:21:06.093Z,72.27
2018-09-23T23:23:34.441Z,72.08
2018-09-23T23:26:02.823Z,72.39
2018-09-23T23:28:31.270Z,72.45
2018-09-23T23:30:59.679Z,72.50
2018-09-23T23:33:28.191Z,72.87
2018-09-23T23:35:56.659Z,72.75
2018-09-23T23:38:25.155Z,72.82
2018-09-23T23:40:53.496Z,72.85
2018-09-23T23:43:21.878Z,72.76
2018-09-23T23:45:50.215Z,72.77
2018-09-23T23:48:18.620Z,72.90
2018-09-23T23:50:47.075Z,72.39
2018-09-23T23:53:15.420Z,72.47
2018-09-23T23:55:43.826Z,72.29
2018-09-23T23:58:12.240Z,72.25
